createdAt,value
2018-09-20T00:00:29.768Z,19.1
2018-09-20T00:01:37.825Z,19.1
2018-09-20T00:02:45.732Z,19.1
2018-09-20T00:03:53.863Z,19
2018-09-20T00:05:02.379Z,19.2
2018-09-20T00:06:11.103Z,19.3
2018-09-20T00:07:21.313Z,19.3
2018-09-20T00:08:27.653Z,19.3
2018-09-20T00:09:35.844Z,19.3
2018-09-20T00:10:43.517Z,19.3
2018-09-20T00:11:49.939Z,19.3
2018-09-20T00:12:59.817Z,19.3
2018-09-20T00:14:07.818Z,19.4
2018-09-20T00:15:17.237Z,19.4
2018-09-20T00:16:26.198Z,19.2
2018-09-20T00:17:35.304Z,19.1
2018-09-20T00:18:42.845Z,19.2
2018-09-20T00:19:53.623Z,19.2
2018-09-20T00:21:02.060Z,19.1
2018-09-20T00:22:08.749Z,19.2
2018-09-20T00:23:16.585Z,19.3
2018-09-20T00:24:22.169Z,19.4
2018-09-20T00:25:30.041Z,19.4
2018-09-20T00:26:38.745Z,19.4
2018-09-20T00:27:48.583Z,19.4
2018-09-20T00:28:55.996Z,19.4
2018-09-20T00:30:03.830Z,19.5
2018-09-20T00:31:11.935Z,19.6
2018-09-20T00:32:19.034Z,19.5
2018-09-20T00:33:25.639Z,19.5
2018-09-20T00:34:34.475Z,19.5
2018-09-20T00:35:41.769Z,19.5
2018-09-20T00:36:49.562Z,19.5
2018-09-20T00:37:58.697Z,19.5
2018-09-20T00:39:08.234Z,19.5
2018-09-20T00:40:16.661Z,19.5
2018-09-20T00:41:23.839Z,19.4
2018-09-20T00:42:27.854Z,19.4
2018-09-20T00:43:33.107Z,19.3
2018-09-20T00:44:39.679Z,19.3
2018-09-20T00:45:43.561Z,19.4
2018-09-20T00:46:48.999Z,19.4
2018-09-20T00:47:54.358Z,19.3
2018-09-20T00:49:01.070Z,19.4
2018-09-20T00:50:06.353Z,19.3
2018-09-20T00:51:11.934Z,19.4
2018-09-20T00:52:18.084Z,19.5
2018-09-20T00:53:24.470Z,19.5
2018-09-20T00:54:30.163Z,19.4
2018-09-20T00:55:35.038Z,19.4
2018-09-20T00:56:40.365Z,19.5
2018-09-20T00:57:45.335Z,19.4
2018-09-20T00:58:47.844Z,19.3
2018-09-20T00:59:51.902Z,19.3
2018-09-20T01:00:56.024Z,19.3
2018-09-20T01:02:00.308Z,19.3
2018-09-20T01:03:04.563Z,19.3
2018-09-20T01:04:07.204Z,19.3
2018-09-20T01:05:10.236Z,19.3
2018-09-20T01:06:13.255Z,19.3
2018-09-20T01:07:17.971Z,19.3
2018-09-20T01:08:21.037Z,19.3
2018-09-20T01:09:24.374Z,19.3
2018-09-20T01:10:27.008Z,19.3
2018-09-20T01:11:29.688Z,19.3
2018-09-20T01:12:32.115Z,19.3
2018-09-20T01:13:35.787Z,19.3
2018-09-20T01:14:38.353Z,19.3
2018-09-20T01:15:40.597Z,19.3
2018-09-20T01:16:43.093Z,19.2
2018-09-20T01:17:46.411Z,19.1
2018-09-20T01:18:48.655Z,19.1
2018-09-20T01:19:51.581Z,19.1
2018-09-20T01:20:53.697Z,19.1
2018-09-20T01:21:56.562Z,19.1
2018-09-20T01:22:59.056Z,19.1
2018-09-20T01:24:01.598Z,19
2018-09-20T01:25:04.430Z,19.1
2018-09-20T01:26:07.322Z,19.1
2018-09-20T01:27:09.373Z,19
2018-09-20T01:28:11.403Z,19.1
2018-09-20T01:29:13.938Z,19
2018-09-20T01:30:16.304Z,19
2018-09-20T01:31:18.389Z,19
2018-09-20T01:32:22.634Z,19
2018-09-20T01:33:26.429Z,19
2018-09-20T01:34:31.264Z,19
2018-09-20T01:35:38.068Z,19
2018-09-20T01:36:43.825Z,19
2018-09-20T01:37:49.722Z,19
2018-09-20T01:38:53.816Z,18.9
2018-09-20T01:39:57.747Z,18.9
2018-09-20T01:41:02.838Z,18.9
2018-09-20T01:42:07.682Z,18.9
2018-09-20T01:43:12.577Z,18.9
2018-09-20T01:44:18.037Z,18.8
2018-09-20T01:45:25.016Z,18.8
2018-09-20T01:46:30.530Z,18.8
2018-09-20T01:47:37.232Z,18.8
2018-09-20T01:48:41.240Z,18.8
2018-09-20T01:49:48.013Z,18.8
2018-09-20T01:50:52.097Z,18.8
2018-09-20T01:51:56.213Z,18.8
2018-09-20T01:53:01.495Z,18.8
2018-09-20T01:54:06.790Z,18.8
2018-09-20T01:55:12.927Z,18.7
2018-09-20T01:56:17.737Z,18.7
2018-09-20T01:57:24.009Z,18.6
2018-09-20T01:58:28.044Z,18.7
2018-09-20T01:59:33.385Z,18.6
2018-09-20T02:00:38.457Z,18.6
2018-09-20T02:01:42.650Z,18.6
2018-09-20T02:02:48.174Z,18.4
2018-09-20T02:03:54.879Z,18.5
2018-09-20T02:04:57.520Z,18.5
2018-09-20T02:05:59.541Z,18.5
2018-09-20T02:07:01.840Z,18.4
2018-09-20T02:08:03.858Z,18.3
2018-09-20T02:09:06.537Z,18.3
2018-09-20T02:10:08.573Z,18.3
2018-09-20T02:11:10.868Z,18.3
2018-09-20T02:12:13.474Z,18.3
2018-09-20T02:13:15.988Z,18.3
2018-09-20T02:14:19.170Z,18.3
2018-09-20T02:15:21.575Z,18.2
2018-09-20T02:16:23.807Z,18.3
2018-09-20T02:17:26.192Z,18.3
2018-09-20T02:18:28.327Z,18.3
2018-09-20T02:19:30.721Z,18.3
2018-09-20T02:20:33.096Z,18.3
2018-09-20T02:21:35.481Z,18.3
2018-09-20T02:22:39.090Z,18.3
2018-09-20T02:23:41.698Z,18.2
2018-09-20T02:24:44.470Z,18.2
2018-09-20T02:25:46.823Z,18.2
2018-09-20T02:26:49.317Z,18.2
2018-09-20T02:27:51.981Z,18.2
2018-09-20T02:28:54.125Z,18.1
2018-09-20T02:29:56.546Z,18.1
2018-09-20T02:30:59.224Z,18.1
2018-09-20T02:32:01.720Z,18.1
2018-09-20T02:33:04.333Z,18.1
2018-09-20T02:34:06.998Z,18.1
2018-09-20T02:35:09.695Z,18.1
2018-09-20T02:36:12.228Z,18
2018-09-20T02:37:14.849Z,18
2018-09-20T02:38:17.133Z,18
2018-09-20T02:39:20.529Z,18
2018-09-20T02:40:23.657Z,18
2018-09-20T02:41:26.618Z,18
2018-09-20T02:42:30.009Z,18.1
2018-09-20T02:43:32.574Z,18
2018-09-20T02:44:35.163Z,18
2018-09-20T02:45:37.813Z,18.1
2018-09-20T02:46:41.549Z,18
2018-09-20T02:47:44.086Z,18
2018-09-20T02:48:46.114Z,18
2018-09-20T02:49:48.779Z,17.9
2018-09-20T02:50:51.061Z,18
2018-09-20T02:51:53.758Z,18
2018-09-20T02:52:56.178Z,18
2018-09-20T02:54:00.255Z,18
2018-09-20T02:55:04.004Z,18
2018-09-20T02:56:08.817Z,17.9
2018-09-20T02:57:12.543Z,17.9
2018-09-20T02:58:15.337Z,17.9
2018-09-20T02:59:18.708Z,17.9
2018-09-20T03:00:21.379Z,17.9
2018-09-20T03:01:25.307Z,17.9
2018-09-20T03:02:28.983Z,17.9
2018-09-20T03:03:32.103Z,17.9
2018-09-20T03:04:34.714Z,17.9
2018-09-20T03:05:37.170Z,17.9
2018-09-20T03:06:39.460Z,17.9
2018-09-20T03:07:41.911Z,17.9
2018-09-20T03:08:44.437Z,17.9
2018-09-20T03:09:47.083Z,17.9
2018-09-20T03:10:50.247Z,17.8
2018-09-20T03:11:52.852Z,17.8
2018-09-20T03:12:55.147Z,17.8
2018-09-20T03:13:57.487Z,17.8
2018-09-20T03:15:00.762Z,17.8
2018-09-20T03:16:03.480Z,17.8
2018-09-20T03:17:05.977Z,17.8
2018-09-20T03:18:09.299Z,17.7
2018-09-20T03:19:11.510Z,17.7
2018-09-20T03:20:14.203Z,17.7
2018-09-20T03:21:16.649Z,17.7
2018-09-20T03:22:19.130Z,17.6
2018-09-20T03:23:21.673Z,17.6
2018-09-20T03:24:24.717Z,17.6
2018-09-20T03:25:27.302Z,17.6
2018-09-20T03:26:30.066Z,17.6
2018-09-20T03:27:32.466Z,17.6
2018-09-20T03:28:35.110Z,17.6
2018-09-20T03:29:37.477Z,17.6
2018-09-20T03:30:40.237Z,17.5
2018-09-20T03:31:43.046Z,17.4
2018-09-20T03:32:45.557Z,17.5
2018-09-20T03:33:48.272Z,17.4
2018-09-20T03:34:50.776Z,17.4
2018-09-20T03:35:53.127Z,17.5
2018-09-20T03:36:55.984Z,17.4
2018-09-20T03:37:58.674Z,17.5
2018-09-20T03:39:02.959Z,17.5
2018-09-20T03:40:06.340Z,17.5
2018-09-20T03:41:09.106Z,17.4
2018-09-20T03:42:11.779Z,17.4
2018-09-20T03:43:14.117Z,17.4
2018-09-20T03:44:17.157Z,17.4
2018-09-20T03:45:20.213Z,17.4
2018-09-20T03:46:22.469Z,17.4
2018-09-20T03:47:24.973Z,17.4
2018-09-20T03:48:27.525Z,17.4
2018-09-20T03:49:30.146Z,17.3
2018-09-20T03:50:32.376Z,17.3
2018-09-20T03:51:34.756Z,17.3
2018-09-20T03:52:37.916Z,17.3
2018-09-20T03:53:40.548Z,17.3
2018-09-20T03:54:43.627Z,17.3
2018-09-20T03:55:47.395Z,17.3
2018-09-20T03:56:50.045Z,17.3
2018-09-20T03:57:52.604Z,17.3
2018-09-20T03:58:55.034Z,17.3
2018-09-20T03:59:57.053Z,17.3
2018-09-20T04:00:59.073Z,17.3
2018-09-20T04:02:01.187Z,17.3
2018-09-20T04:03:03.235Z,17.3
2018-09-20T04:04:05.428Z,17.3
2018-09-20T04:05:08.026Z,17.3
2018-09-20T04:06:10.878Z,17.3
2018-09-20T04:07:12.986Z,17.3
2018-09-20T04:08:15.148Z,17.3
2018-09-20T04:09:17.581Z,17.2
2018-09-20T04:10:19.603Z,17.3
2018-09-20T04:11:22.293Z,17.3
2018-09-20T04:12:24.346Z,17.3
2018-09-20T04:13:26.749Z,17.2
2018-09-20T04:14:28.777Z,17.2
2018-09-20T04:15:31.594Z,17.2
2018-09-20T04:16:33.802Z,17.2
2018-09-20T04:17:36.614Z,17.2
2018-09-20T04:18:38.964Z,17.2
2018-09-20T04:19:41.095Z,17.2
2018-09-20T04:20:43.379Z,17.2
2018-09-20T04:21:45.842Z,17.3
2018-09-20T04:22:47.963Z,17.3
2018-09-20T04:23:50.171Z,17.3
2018-09-20T04:24:52.671Z,17.3
2018-09-20T04:25:55.227Z,17.3
2018-09-20T04:26:57.264Z,17.2
2018-09-20T04:27:59.728Z,17.1
2018-09-20T04:29:02.508Z,17.1
2018-09-20T04:30:05.391Z,17.1
2018-09-20T04:31:08.177Z,17.1
2018-09-20T04:32:10.942Z,17.2
2018-09-20T04:33:13.633Z,17.2
2018-09-20T04:34:16.883Z,17.2
2018-09-20T04:35:19.934Z,17.2
2018-09-20T04:36:22.867Z,17.2
2018-09-20T04:37:25.667Z,17.2
2018-09-20T04:38:28.305Z,17.2
2018-09-20T04:39:31.891Z,17.1
2018-09-20T04:40:34.113Z,17.2
2018-09-20T04:41:36.508Z,17.2
2018-09-20T04:42:38.520Z,17.2
2018-09-20T04:43:41.095Z,17.3
2018-09-20T04:44:43.243Z,17.3
2018-09-20T04:45:45.363Z,17.2
2018-09-20T04:46:47.497Z,17.2
2018-09-20T04:47:49.635Z,17.3
2018-09-20T04:48:52.489Z,17.3
2018-09-20T04:49:54.665Z,17.3
2018-09-20T04:50:56.740Z,17.3
2018-09-20T04:51:58.823Z,17.3
2018-09-20T04:53:00.955Z,17.4
2018-09-20T04:54:03.090Z,17.4
2018-09-20T04:55:05.584Z,17.3
2018-09-20T04:56:08.349Z,17.3
2018-09-20T04:57:11.180Z,17.4
2018-09-20T04:58:14.135Z,17.4
2018-09-20T04:59:17.012Z,17.4
2018-09-20T05:00:19.588Z,17.5
2018-09-20T05:01:21.705Z,17.5
2018-09-20T05:02:23.880Z,17.4
2018-09-20T05:03:26.067Z,17.4
2018-09-20T05:04:28.504Z,17.3
2018-09-20T05:05:30.865Z,17.3
2018-09-20T05:06:32.915Z,17.3
2018-09-20T05:07:35.306Z,17.3
2018-09-20T05:08:37.491Z,17.3
2018-09-20T05:09:39.701Z,17.2
2018-09-20T05:10:42.535Z,17.2
2018-09-20T05:11:44.707Z,17.2
2018-09-20T05:12:46.989Z,17.2
2018-09-20T05:13:49.517Z,17.2
2018-09-20T05:14:51.749Z,17.2
2018-09-20T05:15:54.076Z,17.2
2018-09-20T05:16:56.298Z,17.2
2018-09-20T05:17:59.059Z,17.2
2018-09-20T05:19:01.187Z,17.2
2018-09-20T05:20:03.509Z,17.2
2018-09-20T05:21:05.755Z,17.2
2018-09-20T05:22:07.812Z,17.2
2018-09-20T05:23:09.988Z,17.2
2018-09-20T05:24:12.604Z,17.2
2018-09-20T05:25:14.693Z,17.2
2018-09-20T05:26:17.640Z,17.1
2018-09-20T05:27:19.782Z,17.1
2018-09-20T05:28:22.117Z,17.1
2018-09-20T05:29:24.691Z,17.1
2018-09-20T05:30:27.102Z,17.1
2018-09-20T05:31:29.499Z,17.1
2018-09-20T05:32:33.422Z,17.1
2018-09-20T05:33:36.230Z,17.1
2018-09-20T05:34:39.453Z,17.1
2018-09-20T05:35:43.134Z,17.1
2018-09-20T05:36:46.632Z,17.1
2018-09-20T05:37:49.817Z,17.1
2018-09-20T05:38:53.386Z,17.1
2018-09-20T05:39:57.692Z,17.1
2018-09-20T05:41:02.501Z,17.1
2018-09-20T05:42:07.930Z,17.1
2018-09-20T05:43:11.677Z,17.2
2018-09-20T05:44:16.011Z,17.2
2018-09-20T05:45:18.994Z,17.2
2018-09-20T05:46:21.261Z,17.3
2018-09-20T05:47:25.006Z,17.3
2018-09-20T05:48:28.742Z,17.3
2018-09-20T05:49:33.430Z,17.4
2018-09-20T05:50:36.082Z,17.4
2018-09-20T05:51:39.060Z,17.5
2018-09-20T05:52:43.306Z,17.5
2018-09-20T05:53:47.571Z,17.5
2018-09-20T05:54:52.312Z,17.5
2018-09-20T05:55:55.377Z,17.6
2018-09-20T05:56:58.419Z,17.6
2018-09-20T05:58:01.104Z,17.7
2018-09-20T05:59:03.926Z,17.7
2018-09-20T06:00:06.588Z,17.8
2018-09-20T06:01:09.168Z,17.8
2018-09-20T06:02:12.804Z,17.8
2018-09-20T06:03:16.378Z,17.8
2018-09-20T06:04:18.861Z,17.8
2018-09-20T06:05:21.653Z,17.9
2018-09-20T06:06:24.661Z,17.9
2018-09-20T06:07:27.884Z,17.9
2018-09-20T06:08:30.464Z,17.9
2018-09-20T06:09:33.302Z,17.9
2018-09-20T06:10:37.351Z,17.9
2018-09-20T06:11:39.721Z,18
2018-09-20T06:12:42.405Z,18
2018-09-20T06:13:45.678Z,18.1
2018-09-20T06:14:48.190Z,18.1
2018-09-20T06:15:50.524Z,18.1
2018-09-20T06:16:53.457Z,18.1
2018-09-20T06:17:55.471Z,18.1
2018-09-20T06:18:57.858Z,18.2
2018-09-20T06:20:00.011Z,18.2
2018-09-20T06:21:02.089Z,18.3
2018-09-20T06:22:06.181Z,18.3
2018-09-20T06:23:12.301Z,18.3
2018-09-20T06:24:17.157Z,18.4
2018-09-20T06:25:23.932Z,18.4
2018-09-20T06:26:29.181Z,18.4
2018-09-20T06:27:36.654Z,18.5
2018-09-20T06:28:41.379Z,18.5
2018-09-20T06:29:47.040Z,18.5
2018-09-20T06:30:52.597Z,18.6
2018-09-20T06:31:58.809Z,18.6
2018-09-20T06:33:05.322Z,18.6
2018-09-20T06:34:12.554Z,18.7
2018-09-20T06:35:20.683Z,18.7
2018-09-20T06:36:28.892Z,18.8
2018-09-20T06:37:36.788Z,18.8
2018-09-20T06:38:40.462Z,18.8
2018-09-20T06:39:47.159Z,18.9
2018-09-20T06:40:53.519Z,18.9
2018-09-20T06:41:58.675Z,18.9
2018-09-20T06:43:04.914Z,18.9
2018-09-20T06:44:09.166Z,19
2018-09-20T06:45:13.413Z,19
2018-09-20T06:46:20.199Z,19
2018-09-20T06:47:28.176Z,19
2018-09-20T06:48:34.354Z,19.1
2018-09-20T06:49:40.638Z,19.1
2018-09-20T06:50:45.279Z,19.1
2018-09-20T06:51:50.762Z,19.2
2018-09-20T06:52:56.800Z,19.2
2018-09-20T06:54:02.309Z,19.2
2018-09-20T06:55:07.948Z,19.3
2018-09-20T06:56:14.994Z,19.3
2018-09-20T06:57:21.955Z,19.3
2018-09-20T06:58:27.102Z,19.3
2018-09-20T06:59:32.121Z,19.4
2018-09-20T07:00:37.149Z,19.4
2018-09-20T07:01:43.931Z,19.4
2018-09-20T07:02:52.120Z,19.5
2018-09-20T07:03:59.796Z,19.5
2018-09-20T07:05:05.321Z,19.5
2018-09-20T07:06:09.892Z,19.5
2018-09-20T07:07:13.565Z,19.6
2018-09-20T07:08:20.426Z,19.6
2018-09-20T07:09:25.899Z,19.6
2018-09-20T07:10:30.380Z,19.7
2018-09-20T07:11:35.706Z,19.7
2018-09-20T07:12:42.631Z,19.7
2018-09-20T07:13:46.196Z,19.7
2018-09-20T07:14:52.803Z,19.8
2018-09-20T07:16:00.764Z,19.8
2018-09-20T07:17:06.570Z,19.9
2018-09-20T07:18:13.644Z,19.9
2018-09-20T07:19:22.179Z,19.9
2018-09-20T07:20:29.172Z,20
2018-09-20T07:21:35.965Z,20
2018-09-20T07:22:43.960Z,20
2018-09-20T07:23:50.081Z,20
2018-09-20T07:24:54.885Z,20.1
2018-09-20T07:26:00.864Z,20.1
2018-09-20T07:27:07.572Z,20.1
2018-09-20T07:28:14.786Z,20.2
2018-09-20T07:29:22.603Z,20.3
2018-09-20T07:30:29.758Z,20.3
2018-09-20T07:31:35.869Z,20.3
2018-09-20T07:32:39.433Z,20.4
2018-09-20T07:33:43.582Z,20.4
2018-09-20T07:34:46.548Z,20.4
2018-09-20T07:35:49.823Z,20.5
2018-09-20T07:36:53.553Z,20.5
2018-09-20T07:37:56.108Z,20.6
2018-09-20T07:38:58.603Z,20.7
2018-09-20T07:40:01.025Z,20.9
2018-09-20T07:41:03.592Z,21
2018-09-20T07:42:06.413Z,21.2
2018-09-20T07:43:08.520Z,21.2
2018-09-20T07:44:10.656Z,21.3
2018-09-20T07:45:12.835Z,21.3
2018-09-20T07:46:15.589Z,21.5
2018-09-20T07:47:18.098Z,21.7
2018-09-20T07:48:22.080Z,21.8
2018-09-20T07:49:24.730Z,21.8
2018-09-20T07:50:27.673Z,21.8
2018-09-20T07:51:30.661Z,21.9
2018-09-20T07:52:34.650Z,21.9
2018-09-20T07:53:38.850Z,22
2018-09-20T07:54:41.804Z,22
2018-09-20T07:55:43.974Z,21.9
2018-09-20T07:56:46.975Z,22.2
2018-09-20T07:57:49.310Z,22.2
2018-09-20T07:58:51.331Z,22.3
2018-09-20T07:59:53.354Z,22.5
2018-09-20T08:00:55.366Z,22.6
2018-09-20T08:01:57.444Z,22.4
2018-09-20T08:02:59.790Z,22.4
2018-09-20T08:04:02.392Z,22.6
2018-09-20T08:05:04.688Z,22.9
2018-09-20T08:06:06.704Z,22.7
2018-09-20T08:07:08.834Z,22.7
2018-09-20T08:08:11.410Z,22.6
2018-09-20T08:09:13.714Z,22.8
2018-09-20T08:10:15.743Z,22.7
2018-09-20T08:11:17.768Z,22.6
2018-09-20T08:12:19.785Z,22.6
2018-09-20T08:13:21.807Z,22.7
2018-09-20T08:14:24.115Z,22.8
2018-09-20T08:15:26.284Z,22.9
2018-09-20T08:16:28.869Z,22.8
2018-09-20T08:17:31.173Z,23
2018-09-20T08:18:33.192Z,23.3
2018-09-20T08:19:35.601Z,23.4
2018-09-20T08:20:37.626Z,23.5
2018-09-20T08:21:39.733Z,23.1
2018-09-20T08:22:42.054Z,23.2
2018-09-20T08:23:44.074Z,23.7
2018-09-20T08:24:46.101Z,23.7
2018-09-20T08:25:48.122Z,23.8
2018-09-20T08:26:51.110Z,23.5
2018-09-20T08:27:53.632Z,23.6
2018-09-20T08:28:55.604Z,23.6
2018-09-20T08:29:57.626Z,23.8
2018-09-20T08:30:59.663Z,23.5
2018-09-20T08:32:01.684Z,23.5
2018-09-20T08:33:03.708Z,23.7
2018-09-20T08:34:05.729Z,24
2018-09-20T08:35:07.752Z,23.7
2018-09-20T08:36:09.775Z,23.9
2018-09-20T08:37:11.839Z,23.9
2018-09-20T08:38:13.828Z,24
2018-09-20T08:39:15.854Z,23.9
2018-09-20T08:40:18.156Z,24
2018-09-20T08:41:20.563Z,24
2018-09-20T08:42:22.945Z,24
2018-09-20T08:43:25.331Z,24.1
2018-09-20T08:44:27.637Z,24
2018-09-20T08:45:29.660Z,24.3
2018-09-20T08:46:31.685Z,24.3
2018-09-20T08:47:33.710Z,24.5
2018-09-20T08:48:35.733Z,24.5
2018-09-20T08:49:37.757Z,24.7
2018-09-20T08:50:39.780Z,24.4
2018-09-20T08:51:41.810Z,24.8
2018-09-20T08:52:43.836Z,24.9
2018-09-20T08:53:45.860Z,25
2018-09-20T08:54:47.886Z,24.9
2018-09-20T08:55:50.305Z,24.6
2018-09-20T08:56:52.676Z,24.5
2018-09-20T08:57:54.643Z,24.5
2018-09-20T08:58:56.665Z,24.6
2018-09-20T08:59:58.990Z,24.7
2018-09-20T09:01:01.786Z,25
2018-09-20T09:02:03.811Z,24.8
2018-09-20T09:03:06.525Z,24.7
2018-09-20T09:04:08.549Z,24.8
2018-09-20T09:05:10.575Z,24.9
2018-09-20T09:06:12.598Z,24.8
2018-09-20T09:07:14.621Z,24.7
2018-09-20T09:08:16.954Z,25.1
2018-09-20T09:09:18.982Z,25
2018-09-20T09:10:21.304Z,25.1
2018-09-20T09:11:23.327Z,25.3
2018-09-20T09:12:25.354Z,25.5
2018-09-20T09:13:27.380Z,25.3
2018-09-20T09:14:29.408Z,25.1
2018-09-20T09:15:31.433Z,24.9
2018-09-20T09:16:33.457Z,24.8
2018-09-20T09:17:35.482Z,24.7
2018-09-20T09:18:37.789Z,24.5
2018-09-20T09:19:39.833Z,24.7
2018-09-20T09:20:41.836Z,24.7
2018-09-20T09:21:43.860Z,24.9
2018-09-20T09:22:45.884Z,25.2
2018-09-20T09:23:47.910Z,25.3
2018-09-20T09:24:49.936Z,25.2
2018-09-20T09:25:51.963Z,25.1
2018-09-20T09:26:53.990Z,25.5
2018-09-20T09:27:56.014Z,25.5
2018-09-20T09:28:58.041Z,25.6
2018-09-20T09:30:00.068Z,25.5
2018-09-20T09:31:02.661Z,25.6
2018-09-20T09:32:05.430Z,25.8
2018-09-20T09:33:08.341Z,25.7
2018-09-20T09:34:10.912Z,25.7
2018-09-20T09:35:13.850Z,25.5
2018-09-20T09:36:16.203Z,25.1
2018-09-20T09:37:18.742Z,25
2018-09-20T09:38:21.497Z,25.2
2018-09-20T09:39:24.027Z,25.2
2018-09-20T09:40:26.484Z,25.3
2018-09-20T09:41:28.876Z,25.2
2018-09-20T09:42:30.995Z,25.6
2018-09-20T09:43:33.303Z,25.8
2018-09-20T09:44:35.725Z,25.9
2018-09-20T09:45:37.751Z,25.8
2018-09-20T09:46:39.777Z,25.9
2018-09-20T09:47:42.112Z,26.3
2018-09-20T09:48:44.138Z,26.2
2018-09-20T09:49:46.166Z,26.3
2018-09-20T09:50:48.190Z,26.6
2018-09-20T09:51:50.221Z,26.4
2018-09-20T09:52:52.532Z,26
2018-09-20T09:53:54.560Z,25.9
2018-09-20T09:54:56.713Z,25.9
2018-09-20T09:55:58.622Z,26.3
2018-09-20T09:57:00.650Z,26.3
2018-09-20T09:58:02.684Z,26.1
2018-09-20T09:59:05.015Z,26.1
2018-09-20T10:00:07.044Z,26.2
2018-09-20T10:01:09.063Z,26.3
2018-09-20T10:02:11.088Z,26.4
2018-09-20T10:03:13.117Z,25.9
2018-09-20T10:04:15.428Z,25.9
2018-09-20T10:05:17.457Z,26
2018-09-20T10:06:19.484Z,26.1
2018-09-20T10:07:22.386Z,25.8
2018-09-20T10:08:24.839Z,25.9
2018-09-20T10:09:26.864Z,25.7
2018-09-20T10:10:29.275Z,25.6
2018-09-20T10:11:31.301Z,26.1
2018-09-20T10:12:33.328Z,25.8
2018-09-20T10:13:35.434Z,25.9
2018-09-20T10:14:37.382Z,26.2
2018-09-20T10:15:39.408Z,26.4
2018-09-20T10:16:41.435Z,26.5
2018-09-20T10:17:43.461Z,26.5
2018-09-20T10:18:45.492Z,26.9
2018-09-20T10:19:48.131Z,26.9
2018-09-20T10:20:50.134Z,27
2018-09-20T10:21:53.223Z,26.5
2018-09-20T10:22:55.639Z,26.8
2018-09-20T10:23:57.732Z,26.7
2018-09-20T10:24:59.692Z,26.5
2018-09-20T10:26:01.727Z,27.1
2018-09-20T10:27:04.334Z,27.3
2018-09-20T10:28:06.826Z,26.9
2018-09-20T10:29:08.812Z,26.8
2018-09-20T10:30:11.143Z,27
2018-09-20T10:31:13.187Z,27.3
2018-09-20T10:32:15.197Z,27.3
2018-09-20T10:33:17.229Z,27.3
2018-09-20T10:34:19.591Z,27.3
2018-09-20T10:35:21.621Z,27.2
2018-09-20T10:36:23.649Z,27.4
2018-09-20T10:37:25.960Z,27.6
2018-09-20T10:38:27.989Z,27.8
2018-09-20T10:39:30.018Z,27.3
2018-09-20T10:40:32.051Z,27.3
2018-09-20T10:41:34.095Z,27
2018-09-20T10:42:36.118Z,27.3
2018-09-20T10:43:38.149Z,27.4
2018-09-20T10:44:40.564Z,27
2018-09-20T10:45:42.595Z,26.9
2018-09-20T10:46:44.620Z,26.5
2018-09-20T10:47:46.655Z,26.7
2018-09-20T10:48:48.684Z,27
2018-09-20T10:49:51.101Z,27.1
2018-09-20T10:50:53.127Z,26.9
2018-09-20T10:51:55.157Z,27.1
2018-09-20T10:52:57.193Z,27
2018-09-20T10:53:59.225Z,27.3
2018-09-20T10:55:01.256Z,27.8
2018-09-20T10:56:03.298Z,27.6
2018-09-20T10:57:05.707Z,27.6
2018-09-20T10:58:07.747Z,27.7
2018-09-20T10:59:09.774Z,27.9
2018-09-20T11:00:11.816Z,27.6
2018-09-20T11:01:13.853Z,27.5
2018-09-20T11:02:15.887Z,27.7
2018-09-20T11:03:18.964Z,28
2018-09-20T11:04:22.611Z,28
2018-09-20T11:05:25.982Z,27.9
2018-09-20T11:06:29.259Z,28
2018-09-20T11:07:32.163Z,27.9
2018-09-20T11:08:35.806Z,27.8
2018-09-20T11:09:39.289Z,27.8
2018-09-20T11:10:42.168Z,27.7
2018-09-20T11:11:44.195Z,28.2
2018-09-20T11:12:46.226Z,28.3
2018-09-20T11:13:48.256Z,28.5
2018-09-20T11:14:50.674Z,27.9
2018-09-20T11:15:52.705Z,28.2
2018-09-20T11:16:55.015Z,28
2018-09-20T11:17:57.053Z,28.2
2018-09-20T11:18:59.087Z,27.6
2018-09-20T11:20:01.160Z,28.1
2018-09-20T11:21:03.494Z,28
2018-09-20T11:22:05.589Z,28.3
2018-09-20T11:23:07.976Z,28.3
2018-09-20T11:24:10.039Z,28.4
2018-09-20T11:25:12.077Z,28.6
2018-09-20T11:26:14.102Z,28.5
2018-09-20T11:27:16.520Z,28.6
2018-09-20T11:28:18.831Z,28.4
2018-09-20T11:29:20.861Z,27.9
2018-09-20T11:30:22.892Z,28.3
2018-09-20T11:31:24.921Z,28.2
2018-09-20T11:32:26.953Z,28.2
2018-09-20T11:33:28.985Z,28.2
2018-09-20T11:34:31.012Z,28.2
2018-09-20T11:35:33.603Z,28.3
2018-09-20T11:36:35.635Z,28.3
2018-09-20T11:37:37.667Z,28.2
2018-09-20T11:38:39.697Z,27.8
2018-09-20T11:39:41.735Z,27.8
2018-09-20T11:40:43.765Z,27.9
2018-09-20T11:41:46.179Z,28
2018-09-20T11:42:48.593Z,28
2018-09-20T11:43:50.627Z,28.4
2018-09-20T11:44:52.658Z,28.5
2018-09-20T11:45:54.694Z,28.3
2018-09-20T11:46:56.725Z,28.5
2018-09-20T11:47:58.753Z,28.2
2018-09-20T11:49:00.787Z,28.3
2018-09-20T11:50:02.816Z,28.2
2018-09-20T11:51:04.849Z,28.3
2018-09-20T11:52:06.877Z,28.1
2018-09-20T11:53:09.297Z,28.7
2018-09-20T11:54:11.328Z,29.1
2018-09-20T11:55:13.361Z,29.1
2018-09-20T11:56:15.393Z,29
2018-09-20T11:57:17.427Z,28.7
2018-09-20T11:58:19.746Z,28.8
2018-09-20T11:59:21.783Z,29.1
2018-09-20T12:00:23.817Z,29
2018-09-20T12:01:26.636Z,29.1
2018-09-20T12:02:28.647Z,29
2018-09-20T12:03:30.683Z,29.1
2018-09-20T12:04:32.712Z,28.7
2018-09-20T12:05:34.742Z,28.4
2018-09-20T12:06:36.773Z,28.3
2018-09-20T12:07:39.370Z,28.2
2018-09-20T12:08:41.399Z,27.6
2018-09-20T12:09:43.438Z,27.8
2018-09-20T12:10:45.479Z,27.8
2018-09-20T12:11:47.800Z,27.5
2018-09-20T12:12:49.944Z,27.8
2018-09-20T12:13:51.988Z,27.9
2018-09-20T12:14:54.695Z,27.9
2018-09-20T12:15:56.736Z,28.1
2018-09-20T12:16:58.769Z,27.8
2018-09-20T12:18:00.808Z,28
2018-09-20T12:19:02.848Z,27.9
2018-09-20T12:20:05.334Z,27.7
2018-09-20T12:21:07.303Z,27.5
2018-09-20T12:22:09.621Z,27.5
2018-09-20T12:23:11.651Z,27.4
2018-09-20T12:24:13.963Z,27.1
2018-09-20T12:25:16.000Z,27.1
2018-09-20T12:26:18.420Z,27
2018-09-20T12:27:20.787Z,27.1
2018-09-20T12:28:22.857Z,26.9
2018-09-20T12:29:24.925Z,26.8
2018-09-20T12:30:26.969Z,26.5
2018-09-20T12:31:29.065Z,26.4
2018-09-20T12:32:31.054Z,26.5
2018-09-20T12:33:33.387Z,26.6
2018-09-20T12:34:35.788Z,26.5
2018-09-20T12:35:37.883Z,26.8
2018-09-20T12:36:39.930Z,26.9
2018-09-20T12:37:42.049Z,26.9
2018-09-20T12:38:44.785Z,27
2018-09-20T12:39:47.998Z,26.9
2018-09-20T12:40:52.377Z,26.8
2018-09-20T12:41:56.719Z,26.7
2018-09-20T12:43:02.730Z,26.7
2018-09-20T12:44:07.978Z,26.8
2018-09-20T12:45:12.572Z,26.6
2018-09-20T12:46:15.669Z,26.4
2018-09-20T12:47:18.370Z,26.6
2018-09-20T12:48:22.421Z,26.7
2018-09-20T12:49:25.120Z,26.6
2018-09-20T12:50:28.287Z,26.4
2018-09-20T12:51:32.482Z,26.6
2018-09-20T12:52:37.153Z,26.8
2018-09-20T12:53:40.605Z,26.8
2018-09-20T12:54:45.561Z,26.8
2018-09-20T12:55:48.608Z,26.8
2018-09-20T12:56:51.069Z,26.9
2018-09-20T12:57:55.013Z,26.8
2018-09-20T12:58:58.352Z,26.8
2018-09-20T13:00:01.512Z,26.7
2018-09-20T13:01:05.671Z,26.6
2018-09-20T13:02:09.108Z,26.7
2018-09-20T13:03:12.377Z,26.7
2018-09-20T13:04:15.657Z,26.6
2018-09-20T13:05:19.246Z,26.8
2018-09-20T13:06:25.805Z,26.7
2018-09-20T13:07:33.031Z,26.9
2018-09-20T13:08:39.626Z,26.9
2018-09-20T13:09:44.516Z,27
2018-09-20T13:10:49.213Z,27.1
2018-09-20T13:11:54.361Z,27.2
2018-09-20T13:12:58.856Z,27.3
2018-09-20T13:14:06.202Z,27.3
2018-09-20T13:15:11.554Z,27.1
2018-09-20T13:16:14.523Z,27.1
2018-09-20T13:17:18.831Z,27.1
2018-09-20T13:18:24.326Z,27.3
2018-09-20T13:19:28.693Z,27.2
2018-09-20T13:20:34.609Z,27.1
2018-09-20T13:21:39.364Z,27.1
2018-09-20T13:22:44.918Z,26.9
2018-09-20T13:23:49.399Z,27
2018-09-20T13:24:56.508Z,26.8
2018-09-20T13:26:05.169Z,26.8
2018-09-20T13:27:11.755Z,26.9
2018-09-20T13:28:19.198Z,27.1
2018-09-20T13:29:23.458Z,26.8
2018-09-20T13:30:29.089Z,26.8
2018-09-20T13:31:33.132Z,26.7
2018-09-20T13:32:39.012Z,26.7
2018-09-20T13:33:43.684Z,26.5
2018-09-20T13:34:47.661Z,26.6
2018-09-20T13:35:52.292Z,26.5
2018-09-20T13:36:57.050Z,26.5
2018-09-20T13:38:01.163Z,26.6
2018-09-20T13:39:08.275Z,26.7
2018-09-20T13:40:14.989Z,26.5
2018-09-20T13:41:19.689Z,26.5
2018-09-20T13:42:24.909Z,26.7
2018-09-20T13:43:30.240Z,26.8
2018-09-20T13:44:33.353Z,26.9
2018-09-20T13:45:39.443Z,26.9
2018-09-20T13:46:44.285Z,27
2018-09-20T13:47:46.591Z,27.1
2018-09-20T13:48:51.256Z,27.2
2018-09-20T13:49:54.481Z,27.1
2018-09-20T13:50:57.487Z,27.1
2018-09-20T13:52:02.170Z,27
2018-09-20T13:53:06.687Z,27
2018-09-20T13:54:10.271Z,26.9
2018-09-20T13:55:13.240Z,26.9
2018-09-20T13:56:16.561Z,27
2018-09-20T13:57:19.843Z,26.9
2018-09-20T13:58:22.902Z,27
2018-09-20T13:59:25.686Z,26.9
2018-09-20T14:00:29.630Z,27
2018-09-20T14:01:32.517Z,27
2018-09-20T14:02:36.125Z,27
2018-09-20T14:03:39.126Z,27
2018-09-20T14:04:42.794Z,27
2018-09-20T14:05:45.689Z,26.9
2018-09-20T14:06:48.483Z,26.9
2018-09-20T14:07:51.389Z,26.8
2018-09-20T14:08:54.268Z,27
2018-09-20T14:09:57.549Z,26.9